sensor_id;sensor_type;location;lat;lon;timestamp;temperature;humidity
21355;DHT22;10835;50.148;19.760;2023-12-07T00:00:05;16.70;41.40
21355;DHT22;10835;50.148;19.760;2023-12-07T00:02:34;16.90;41.20
21355;DHT22;10835;50.148;19.760;2023-12-07T00:05:03;17.20;41.10
21355;DHT22;10835;50.148;19.760;2023-12-07T00:07:31;17.10;40.70
21355;DHT22;10835;50.148;19.760;2023-12-07T00:10:00;17.20;40.70
21355;DHT22;10835;50.148;19.760;2023-12-07T00:12:28;17.00;40.80
21355;DHT22;10835;50.148;19.760;2023-12-07T00:14:57;16.90;41.20
21355;DHT22;10835;50.148;19.760;2023-12-07T00:17:27;17.00;41.20
21355;DHT22;10835;50.148;19.760;2023-12-07T00:19:55;17.10;41.00
21355;DHT22;10835;50.148;19.760;2023-12-07T00:22:24;17.20;40.80
21355;DHT22;10835;50.148;19.760;2023-12-07T00:24:54;17.10;40.90
21355;DHT22;10835;50.148;19.760;2023-12-07T00:27:22;17.00;41.00
21355;DHT22;10835;50.148;19.760;2023-12-07T00:29:51;17.00;41.10
21355;DHT22;10835;50.148;19.760;2023-12-07T00:32:19;16.70;41.40
21355;DHT22;10835;50.148;19.760;2023-12-07T00:34:50;16.80;41.50
21355;DHT22;10835;50.148;19.760;2023-12-07T00:37:19;16.80;41.50
21355;DHT22;10835;50.148;19.760;2023-12-07T00:39:47;16.90;42.20
21355;DHT22;10835;50.148;19.760;2023-12-07T00:42:16;17.00;41.30
21355;DHT22;10835;50.148;19.760;2023-12-07T00:44:45;17.00;41.20
21355;DHT22;10835;50.148;19.760;2023-12-07T00:47:13;17.00;41.10
21355;DHT22;10835;50.148;19.760;2023-12-07T00:49:41;16.80;41.40
21355;DHT22;10835;50.148;19.760;2023-12-07T00:52:11;17.00;41.30
21355;DHT22;10835;50.148;19.760;2023-12-07T00:54:40;17.10;41.20
21355;DHT22;10835;50.148;19.760;2023-12-07T00:57:09;17.20;41.10
21355;DHT22;10835;50.148;19.760;2023-12-07T00:59:37;17.20;40.90
21355;DHT22;10835;50.148;19.760;2023-12-07T01:02:06;17.00;41.00
21355;DHT22;10835;50.148;19.760;2023-12-07T01:04:35;17.00;41.20
21355;DHT22;10835;50.148;19.760;2023-12-07T01:07:03;17.00;41.30
21355;DHT22;10835;50.148;19.760;2023-12-07T01:09:33;17.20;41.20
21355;DHT22;10835;50.148;19.760;2023-12-07T01:12:03;17.30;40.90
21355;DHT22;10835;50.148;19.760;2023-12-07T01:14:32;17.40;40.70
21355;DHT22;10835;50.148;19.760;2023-12-07T01:17:00;17.50;40.50
21355;DHT22;10835;50.148;19.760;2023-12-07T01:19:29;17.50;40.50
21355;DHT22;10835;50.148;19.760;2023-12-07T01:21:57;17.50;40.40
21355;DHT22;10835;50.148;19.760;2023-12-07T01:24:26;17.60;40.40
21355;DHT22;10835;50.148;19.760;2023-12-07T01:26:57;17.80;40.20
21355;DHT22;10835;50.148;19.760;2023-12-07T01:29:26;17.90;39.90
21355;DHT22;10835;50.148;19.760;2023-12-07T01:31:55;17.80;40.00
21355;DHT22;10835;50.148;19.760;2023-12-07T01:34:23;17.90;40.10
21355;DHT22;10835;50.148;19.760;2023-12-07T01:36:52;18.00;39.80
21355;DHT22;10835;50.148;19.760;2023-12-07T01:39:23;18.10;39.70
21355;DHT22;10835;50.148;19.760;2023-12-07T01:41:52;18.20;39.50
21355;DHT22;10835;50.148;19.760;2023-12-07T01:44:21;18.30;39.40
21355;DHT22;10835;50.148;19.760;2023-12-07T01:46:50;18.40;39.30
21355;DHT22;10835;50.148;19.760;2023-12-07T01:49:18;18.50;39.20
21355;DHT22;10835;50.148;19.760;2023-12-07T01:51:47;18.60;39.00
21355;DHT22;10835;50.148;19.760;2023-12-07T01:54:15;18.70;38.80
21355;DHT22;10835;50.148;19.760;2023-12-07T01:56:44;18.70;38.70
21355;DHT22;10835;50.148;19.760;2023-12-07T01:59:12;18.80;38.60
21355;DHT22;10835;50.148;19.760;2023-12-07T02:01:42;18.80;38.50
21355;DHT22;10835;50.148;19.760;2023-12-07T02:04:11;18.90;38.50
21355;DHT22;10835;50.148;19.760;2023-12-07T02:06:40;18.90;38.50
21355;DHT22;10835;50.148;19.760;2023-12-07T02:09:09;19.00;38.20
21355;DHT22;10835;50.148;19.760;2023-12-07T02:11:37;19.00;38.20
21355;DHT22;10835;50.148;19.760;2023-12-07T02:14:05;19.10;38.30
21355;DHT22;10835;50.148;19.760;2023-12-07T02:16:40;19.10;38.10
21355;DHT22;10835;50.148;19.760;2023-12-07T02:19:19;19.00;38.00
21355;DHT22;10835;50.148;19.760;2023-12-07T02:21:56;18.90;38.10
21355;DHT22;10835;50.148;19.760;2023-12-07T02:24:27;18.90;38.20
21355;DHT22;10835;50.148;19.760;2023-12-07T02:26:59;18.90;38.30
21355;DHT22;10835;50.148;19.760;2023-12-07T02:29:28;18.90;38.30
21355;DHT22;10835;50.148;19.760;2023-12-07T02:31:57;18.90;38.30
21355;DHT22;10835;50.148;19.760;2023-12-07T02:34:25;18.80;38.40
21355;DHT22;10835;50.148;19.760;2023-12-07T02:36:54;18.80;38.70
21355;DHT22;10835;50.148;19.760;2023-12-07T02:39:23;18.80;38.60
21355;DHT22;10835;50.148;19.760;2023-12-07T02:41:53;18.80;38.50
21355;DHT22;10835;50.148;19.760;2023-12-07T02:44:24;18.80;38.50
21355;DHT22;10835;50.148;19.760;2023-12-07T02:46:52;18.90;38.50
21355;DHT22;10835;50.148;19.760;2023-12-07T02:49:21;18.90;38.50
21355;DHT22;10835;50.148;19.760;2023-12-07T02:51:50;18.90;38.50
21355;DHT22;10835;50.148;19.760;2023-12-07T02:54:18;19.00;38.40
21355;DHT22;10835;50.148;19.760;2023-12-07T02:56:48;19.00;38.40
21355;DHT22;10835;50.148;19.760;2023-12-07T02:59:16;19.00;38.30
21355;DHT22;10835;50.148;19.760;2023-12-07T03:01:46;18.90;38.30
21355;DHT22;10835;50.148;19.760;2023-12-07T03:04:15;18.90;38.30
21355;DHT22;10835;50.148;19.760;2023-12-07T03:06:43;18.90;38.50
21355;DHT22;10835;50.148;19.760;2023-12-07T03:09:12;18.70;38.60
21355;DHT22;10835;50.148;19.760;2023-12-07T03:11:40;18.80;38.80
21355;DHT22;10835;50.148;19.760;2023-12-07T03:14:09;18.80;38.80
21355;DHT22;10835;50.148;19.760;2023-12-07T03:16:38;18.60;38.80
21355;DHT22;10835;50.148;19.760;2023-12-07T03:19:08;18.70;38.90
21355;DHT22;10835;50.148;19.760;2023-12-07T03:21:39;18.80;38.80
21355;DHT22;10835;50.148;19.760;2023-12-07T03:24:07;18.60;39.10
21355;DHT22;10835;50.148;19.760;2023-12-07T03:26:36;18.70;39.00
21355;DHT22;10835;50.148;19.760;2023-12-07T03:29:05;18.70;38.90
21355;DHT22;10835;50.148;19.760;2023-12-07T03:31:33;18.70;39.00
21355;DHT22;10835;50.148;19.760;2023-12-07T03:34:02;18.50;39.10
21355;DHT22;10835;50.148;19.760;2023-12-07T03:36:34;18.50;39.30
21355;DHT22;10835;50.148;19.760;2023-12-07T03:39:02;18.60;39.00
21355;DHT22;10835;50.148;19.760;2023-12-07T03:41:32;18.60;39.10
21355;DHT22;10835;50.148;19.760;2023-12-07T03:44:00;18.30;39.20
21355;DHT22;10835;50.148;19.760;2023-12-07T03:46:29;18.30;39.50
21355;DHT22;10835;50.148;19.760;2023-12-07T03:48:57;18.50;39.30
21355;DHT22;10835;50.148;19.760;2023-12-07T03:51:27;18.40;39.20
21355;DHT22;10835;50.148;19.760;2023-12-07T03:53:57;17.80;39.80
21355;DHT22;10835;50.148;19.760;2023-12-07T03:56:26;17.20;40.40
21355;DHT22;10835;50.148;19.760;2023-12-07T03:58:54;16.90;40.70
21355;DHT22;10835;50.148;19.760;2023-12-07T04:01:24;16.10;41.00
21355;DHT22;10835;50.148;19.760;2023-12-07T04:03:54;16.20;42.30
21355;DHT22;10835;50.148;19.760;2023-12-07T04:06:23;16.60;42.60
21355;DHT22;10835;50.148;19.760;2023-12-07T04:08:52;16.60;42.20
21355;DHT22;10835;50.148;19.760;2023-12-07T04:11:22;16.30;42.30
21355;DHT22;10835;50.148;19.760;2023-12-07T04:13:51;16.40;42.80
21355;DHT22;10835;50.148;19.760;2023-12-07T04:16:19;16.80;42.40
21355;DHT22;10835;50.148;19.760;2023-12-07T04:18:48;16.70;42.10
21355;DHT22;10835;50.148;19.760;2023-12-07T04:21:17;17.00;42.10
21355;DHT22;10835;50.148;19.760;2023-12-07T04:23:45;17.50;41.40
21355;DHT22;10835;50.148;19.760;2023-12-07T04:26:14;17.70;40.90
21355;DHT22;10835;50.148;19.760;2023-12-07T04:28:44;17.90;40.60
21355;DHT22;10835;50.148;19.760;2023-12-07T04:31:13;18.00;40.40
21355;DHT22;10835;50.148;19.760;2023-12-07T04:33:41;18.10;40.10
21355;DHT22;10835;50.148;19.760;2023-12-07T04:36:10;18.20;40.00
21355;DHT22;10835;50.148;19.760;2023-12-07T04:38:39;18.20;39.70
21355;DHT22;10835;50.148;19.760;2023-12-07T04:41:07;18.00;39.90
21355;DHT22;10835;50.148;19.760;2023-12-07T04:43:36;18.20;39.80
21355;DHT22;10835;50.148;19.760;2023-12-07T04:46:06;18.40;39.40
21355;DHT22;10835;50.148;19.760;2023-12-07T04:48:34;18.50;39.40
21355;DHT22;10835;50.148;19.760;2023-12-07T04:51:03;18.30;39.30
21355;DHT22;10835;50.148;19.760;2023-12-07T04:53:32;18.30;39.40
21355;DHT22;10835;50.148;19.760;2023-12-07T04:56:00;18.40;39.40
21355;DHT22;10835;50.148;19.760;2023-12-07T04:58:29;18.40;39.40
21355;DHT22;10835;50.148;19.760;2023-12-07T05:00:57;18.50;39.30
21355;DHT22;10835;50.148;19.760;2023-12-07T05:03:28;18.50;39.20
21355;DHT22;10835;50.148;19.760;2023-12-07T05:05:56;18.60;39.20
21355;DHT22;10835;50.148;19.760;2023-12-07T05:08:25;18.80;39.00
21355;DHT22;10835;50.148;19.760;2023-12-07T05:10:53;18.80;38.80
21355;DHT22;10835;50.148;19.760;2023-12-07T05:13:21;18.90;38.80
21355;DHT22;10835;50.148;19.760;2023-12-07T05:15:50;18.80;38.80
21355;DHT22;10835;50.148;19.760;2023-12-07T05:18:18;18.80;38.70
21355;DHT22;10835;50.148;19.760;2023-12-07T05:20:48;18.90;38.70
21355;DHT22;10835;50.148;19.760;2023-12-07T05:23:17;18.90;38.70
21355;DHT22;10835;50.148;19.760;2023-12-07T05:25:45;18.90;39.30
21355;DHT22;10835;50.148;19.760;2023-12-07T05:28:14;18.90;38.70
21355;DHT22;10835;50.148;19.760;2023-12-07T05:30:43;18.60;38.90
21355;DHT22;10835;50.148;19.760;2023-12-07T05:33:14;18.30;39.30
21355;DHT22;10835;50.148;19.760;2023-12-07T05:35:43;18.20;39.60
21355;DHT22;10835;50.148;19.760;2023-12-07T05:38:13;17.70;40.10
21355;DHT22;10835;50.148;19.760;2023-12-07T05:40:41;17.20;40.40
21355;DHT22;10835;50.148;19.760;2023-12-07T05:43:10;17.30;41.20
21355;DHT22;10835;50.148;19.760;2023-12-07T05:45:38;16.90;41.40
21355;DHT22;10835;50.148;19.760;2023-12-07T05:48:08;16.10;41.50
21355;DHT22;10835;50.148;19.760;2023-12-07T05:50:36;16.30;42.70
21355;DHT22;10835;50.148;19.760;2023-12-07T05:53:06;16.10;42.90
21355;DHT22;10835;50.148;19.760;2023-12-07T05:55:39;16.10;42.60
21355;DHT22;10835;50.148;19.760;2023-12-07T05:58:07;15.50;42.80
21355;DHT22;10835;50.148;19.760;2023-12-07T06:00:36;14.90;43.40
21355;DHT22;10835;50.148;19.760;2023-12-07T06:03:04;15.20;44.50
21355;DHT22;10835;50.148;19.760;2023-12-07T06:05:33;15.60;44.30
21355;DHT22;10835;50.148;19.760;2023-12-07T06:08:01;15.80;44.00
21355;DHT22;10835;50.148;19.760;2023-12-07T06:10:31;16.10;43.60
21355;DHT22;10835;50.148;19.760;2023-12-07T06:13:01;16.70;43.00
21355;DHT22;10835;50.148;19.760;2023-12-07T06:15:30;17.00;42.30
21355;DHT22;10835;50.148;19.760;2023-12-07T06:17:59;17.20;41.90
21355;DHT22;10835;50.148;19.760;2023-12-07T06:20:27;16.90;41.30
21355;DHT22;10835;50.148;19.760;2023-12-07T06:22:56;16.80;42.20
21355;DHT22;10835;50.148;19.760;2023-12-07T06:25:24;16.00;42.40
21355;DHT22;10835;50.148;19.760;2023-12-07T06:27:53;16.10;42.90
21355;DHT22;10835;50.148;19.760;2023-12-07T06:30:24;15.80;43.20
21355;DHT22;10835;50.148;19.760;2023-12-07T06:32:53;15.30;43.30
21355;DHT22;10835;50.148;19.760;2023-12-07T06:35:22;15.60;44.60
21355;DHT22;10835;50.148;19.760;2023-12-07T06:37:50;14.60;44.00
21355;DHT22;10835;50.148;19.760;2023-12-07T06:40:19;15.00;45.10
21355;DHT22;10835;50.148;19.760;2023-12-07T06:42:48;14.80;45.00
21355;DHT22;10835;50.148;19.760;2023-12-07T06:45:16;15.20;45.10
21355;DHT22;10835;50.148;19.760;2023-12-07T06:47:46;15.10;44.90
21355;DHT22;10835;50.148;19.760;2023-12-07T06:50:15;14.80;44.60
21355;DHT22;10835;50.148;19.760;2023-12-07T06:52:43;14.60;45.30
21355;DHT22;10835;50.148;19.760;2023-12-07T06:55:12;15.10;45.60
21355;DHT22;10835;50.148;19.760;2023-12-07T06:57:42;15.00;45.10
21355;DHT22;10835;50.148;19.760;2023-12-07T07:00:11;15.30;45.50
21355;DHT22;10835;50.148;19.760;2023-12-07T07:02:40;15.30;44.40
21355;DHT22;10835;50.148;19.760;2023-12-07T07:05:10;14.70;45.10
21355;DHT22;10835;50.148;19.760;2023-12-07T07:07:39;15.10;46.20
21355;DHT22;10835;50.148;19.760;2023-12-07T07:10:09;14.30;45.20
21355;DHT22;10835;50.148;19.760;2023-12-07T07:12:39;15.30;46.00
21355;DHT22;10835;50.148;19.760;2023-12-07T07:15:09;15.70;45.00
21355;DHT22;10835;50.148;19.760;2023-12-07T07:17:37;16.10;44.00
21355;DHT22;10835;50.148;19.760;2023-12-07T07:20:07;15.90;44.00
21355;DHT22;10835;50.148;19.760;2023-12-07T07:22:37;15.30;44.10
21355;DHT22;10835;50.148;19.760;2023-12-07T07:25:06;15.00;45.10
21355;DHT22;10835;50.148;19.760;2023-12-07T07:27:34;14.80;45.20
21355;DHT22;10835;50.148;19.760;2023-12-07T07:30:03;15.60;45.40
21355;DHT22;10835;50.148;19.760;2023-12-07T07:32:32;16.00;44.40
21355;DHT22;10835;50.148;19.760;2023-12-07T07:35:01;15.80;44.60
21355;DHT22;10835;50.148;19.760;2023-12-07T07:37:29;16.40;43.90
21355;DHT22;10835;50.148;19.760;2023-12-07T07:39:59;16.30;43.30
21355;DHT22;10835;50.148;19.760;2023-12-07T07:42:34;16.10;43.80
21355;DHT22;10835;50.148;19.760;2023-12-07T07:45:02;15.80;43.80
21355;DHT22;10835;50.148;19.760;2023-12-07T07:47:31;16.50;43.80
21355;DHT22;10835;50.148;19.760;2023-12-07T07:50:00;16.20;43.70
21355;DHT22;10835;50.148;19.760;2023-12-07T07:52:33;15.60;43.90
21355;DHT22;10835;50.148;19.760;2023-12-07T07:55:04;16.10;44.80
21355;DHT22;10835;50.148;19.760;2023-12-07T07:57:33;16.40;44.00
21355;DHT22;10835;50.148;19.760;2023-12-07T08:00:01;16.10;44.70
21355;DHT22;10835;50.148;19.760;2023-12-07T08:02:32;17.10;43.80
21355;DHT22;10835;50.148;19.760;2023-12-07T08:05:00;17.40;42.80
21355;DHT22;10835;50.148;19.760;2023-12-07T08:07:42;17.50;42.20
21355;DHT22;10835;50.148;19.760;2023-12-07T08:10:12;16.80;42.60
21355;DHT22;10835;50.148;19.760;2023-12-07T08:12:41;16.50;43.30
21355;DHT22;10835;50.148;19.760;2023-12-07T08:15:10;16.50;43.90
21355;DHT22;10835;50.148;19.760;2023-12-07T08:17:40;17.20;43.10
21355;DHT22;10835;50.148;19.760;2023-12-07T08:20:09;16.20;43.90
21355;DHT22;10835;50.148;19.760;2023-12-07T08:22:41;17.50;42.90
21355;DHT22;10835;50.148;19.760;2023-12-07T08:25:12;17.80;42.10
21355;DHT22;10835;50.148;19.760;2023-12-07T08:27:40;17.40;41.80
21355;DHT22;10835;50.148;19.760;2023-12-07T08:30:11;18.00;41.60
21355;DHT22;10835;50.148;19.760;2023-12-07T08:32:40;18.20;41.10
21355;DHT22;10835;50.148;19.760;2023-12-07T08:35:08;18.30;41.40
21355;DHT22;10835;50.148;19.760;2023-12-07T08:37:37;18.00;40.90
21355;DHT22;10835;50.148;19.760;2023-12-07T08:40:07;17.40;42.20
21355;DHT22;10835;50.148;19.760;2023-12-07T08:42:40;17.80;41.90
21355;DHT22;10835;50.148;19.760;2023-12-07T08:45:09;17.30;41.90
21355;DHT22;10835;50.148;19.760;2023-12-07T08:47:37;16.50;43.10
21355;DHT22;10835;50.148;19.760;2023-12-07T08:50:07;16.60;43.50
21355;DHT22;10835;50.148;19.760;2023-12-07T08:52:36;17.10;42.90
21355;DHT22;10835;50.148;19.760;2023-12-07T08:55:14;17.60;42.50
21355;DHT22;10835;50.148;19.760;2023-12-07T08:57:45;16.70;42.90
21355;DHT22;10835;50.148;19.760;2023-12-07T09:00:15;16.40;43.50
21355;DHT22;10835;50.148;19.760;2023-12-07T09:02:44;16.90;43.70
21355;DHT22;10835;50.148;19.760;2023-12-07T09:05:14;16.60;43.90
21355;DHT22;10835;50.148;19.760;2023-12-07T09:07:43;15.50;44.80
21355;DHT22;10835;50.148;19.760;2023-12-07T09:10:12;16.60;44.60
21355;DHT22;10835;50.148;19.760;2023-12-07T09:12:41;15.90;44.10
21355;DHT22;10835;50.148;19.760;2023-12-07T09:15:11;15.70;44.60
21355;DHT22;10835;50.148;19.760;2023-12-07T09:17:41;15.30;45.70
21355;DHT22;10835;50.148;19.760;2023-12-07T09:20:10;15.90;46.00
21355;DHT22;10835;50.148;19.760;2023-12-07T09:22:42;15.90;45.80
21355;DHT22;10835;50.148;19.760;2023-12-07T09:25:11;15.40;45.40
21355;DHT22;10835;50.148;19.760;2023-12-07T09:27:40;15.90;45.80
21355;DHT22;10835;50.148;19.760;2023-12-07T09:30:11;15.90;45.50
21355;DHT22;10835;50.148;19.760;2023-12-07T09:32:40;16.00;45.50
21355;DHT22;10835;50.148;19.760;2023-12-07T09:35:12;16.30;45.10
21355;DHT22;10835;50.148;19.760;2023-12-07T09:37:43;16.50;44.50
21355;DHT22;10835;50.148;19.760;2023-12-07T09:40:15;16.30;45.10
21355;DHT22;10835;50.148;19.760;2023-12-07T09:42:48;16.10;46.00
21355;DHT22;10835;50.148;19.760;2023-12-07T09:45:19;16.60;45.20
21355;DHT22;10835;50.148;19.760;2023-12-07T09:47:50;16.80;44.60
21355;DHT22;10835;50.148;19.760;2023-12-07T09:50:20;16.70;44.30
21355;DHT22;10835;50.148;19.760;2023-12-07T09:52:50;17.00;44.70
21355;DHT22;10835;50.148;19.760;2023-12-07T09:55:33;16.60;44.90
21355;DHT22;10835;50.148;19.760;2023-12-07T09:58:04;17.00;43.90
21355;DHT22;10835;50.148;19.760;2023-12-07T10:00:36;16.90;44.20
21355;DHT22;10835;50.148;19.760;2023-12-07T10:03:06;16.20;44.60
21355;DHT22;10835;50.148;19.760;2023-12-07T10:05:53;16.30;45.30
21355;DHT22;10835;50.148;19.760;2023-12-07T10:08:27;16.80;44.90
21355;DHT22;10835;50.148;19.760;2023-12-07T10:11:06;17.40;44.20
21355;DHT22;10835;50.148;19.760;2023-12-07T10:13:36;17.20;43.80
21355;DHT22;10835;50.148;19.760;2023-12-07T10:16:08;17.20;43.40
21355;DHT22;10835;50.148;19.760;2023-12-07T10:18:38;17.40;43.70
21355;DHT22;10835;50.148;19.760;2023-12-07T10:21:10;17.10;43.50
21355;DHT22;10835;50.148;19.760;2023-12-07T10:23:41;16.50;44.50
21355;DHT22;10835;50.148;19.760;2023-12-07T10:26:13;16.30;45.30
21355;DHT22;10835;50.148;19.760;2023-12-07T10:28:44;15.80;45.30
21355;DHT22;10835;50.148;19.760;2023-12-07T10:31:19;15.50;46.10
21355;DHT22;10835;50.148;19.760;2023-12-07T10:34:01;16.40;45.90
21355;DHT22;10835;50.148;19.760;2023-12-07T10:36:31;15.80;45.70
21355;DHT22;10835;50.148;19.760;2023-12-07T10:39:01;16.00;45.80
21355;DHT22;10835;50.148;19.760;2023-12-07T10:41:43;15.80;46.00
21355;DHT22;10835;50.148;19.760;2023-12-07T10:44:13;15.70;46.40
21355;DHT22;10835;50.148;19.760;2023-12-07T10:46:44;16.00;46.30
21355;DHT22;10835;50.148;19.760;2023-12-07T10:49:17;15.80;46.70
21355;DHT22;10835;50.148;19.760;2023-12-07T10:52:00;16.20;46.70
21355;DHT22;10835;50.148;19.760;2023-12-07T10:54:35;16.50;45.40
21355;DHT22;10835;50.148;19.760;2023-12-07T10:57:07;16.00;45.60
21355;DHT22;10835;50.148;19.760;2023-12-07T10:59:37;15.80;46.00
21355;DHT22;10835;50.148;19.760;2023-12-07T11:02:09;15.10;46.70
21355;DHT22;10835;50.148;19.760;2023-12-07T11:04:41;15.10;48.00
21355;DHT22;10835;50.148;19.760;2023-12-07T11:07:15;14.80;47.50
21355;DHT22;10835;50.148;19.760;2023-12-07T11:09:51;15.30;47.80
21355;DHT22;10835;50.148;19.760;2023-12-07T11:12:28;15.40;47.40
21355;DHT22;10835;50.148;19.760;2023-12-07T11:14:58;16.10;46.80
21355;DHT22;10835;50.148;19.760;2023-12-07T11:17:28;16.30;46.20
21355;DHT22;10835;50.148;19.760;2023-12-07T11:19:57;15.70;46.10
21355;DHT22;10835;50.148;19.760;2023-12-07T11:22:25;15.50;46.30
21355;DHT22;10835;50.148;19.760;2023-12-07T11:24:55;15.20;47.00
21355;DHT22;10835;50.148;19.760;2023-12-07T11:27:26;16.30;46.50
21355;DHT22;10835;50.148;19.760;2023-12-07T11:29:58;16.80;46.10
21355;DHT22;10835;50.148;19.760;2023-12-07T11:32:32;17.60;44.60
21355;DHT22;10835;50.148;19.760;2023-12-07T11:35:03;17.30;44.20
21355;DHT22;10835;50.148;19.760;2023-12-07T11:38:03;17.60;43.50
21355;DHT22;10835;50.148;19.760;2023-12-07T11:40:37;17.00;44.60
21355;DHT22;10835;50.148;19.760;2023-12-07T11:43:11;16.70;44.80
21355;DHT22;10835;50.148;19.760;2023-12-07T11:45:48;16.90;44.70
21355;DHT22;10835;50.148;19.760;2023-12-07T11:48:18;16.70;45.00
21355;DHT22;10835;50.148;19.760;2023-12-07T11:50:58;16.80;44.70
21355;DHT22;10835;50.148;19.760;2023-12-07T11:53:28;16.30;45.10
21355;DHT22;10835;50.148;19.760;2023-12-07T11:55:58;17.10;44.70
21355;DHT22;10835;50.148;19.760;2023-12-07T11:58:27;16.70;44.60
21355;DHT22;10835;50.148;19.760;2023-12-07T12:00:56;16.40;44.90
21355;DHT22;10835;50.148;19.760;2023-12-07T12:03:27;15.80;45.30
21355;DHT22;10835;50.148;19.760;2023-12-07T12:05:56;16.80;45.40
21355;DHT22;10835;50.148;19.760;2023-12-07T12:08:25;16.80;44.70
21355;DHT22;10835;50.148;19.760;2023-12-07T12:10:54;17.60;44.10
21355;DHT22;10835;50.148;19.760;2023-12-07T12:13:28;17.90;43.30
21355;DHT22;10835;50.148;19.760;2023-12-07T12:15:57;17.90;42.70
21355;DHT22;10835;50.148;19.760;2023-12-07T12:18:33;17.80;42.50
21355;DHT22;10835;50.148;19.760;2023-12-07T12:21:03;17.50;42.80
21355;DHT22;10835;50.148;19.760;2023-12-07T12:23:31;17.90;42.70
21355;DHT22;10835;50.148;19.760;2023-12-07T12:26:00;17.10;43.60
21355;DHT22;10835;50.148;19.760;2023-12-07T12:28:29;18.10;42.80
21355;DHT22;10835;50.148;19.760;2023-12-07T12:31:00;18.40;42.40
21355;DHT22;10835;50.148;19.760;2023-12-07T12:33:28;18.60;42.00
21355;DHT22;10835;50.148;19.760;2023-12-07T12:36:05;19.00;41.90
21355;DHT22;10835;50.148;19.760;2023-12-07T12:38:35;19.20;41.20
21355;DHT22;10835;50.148;19.760;2023-12-07T12:41:10;18.20;41.60
21355;DHT22;10835;50.148;19.760;2023-12-07T12:43:40;18.30;42.00
21355;DHT22;10835;50.148;19.760;2023-12-07T12:46:10;17.70;42.30
21355;DHT22;10835;50.148;19.760;2023-12-07T12:48:53;18.00;42.70
21355;DHT22;10835;50.148;19.760;2023-12-07T12:51:25;17.50;43.10
21355;DHT22;10835;50.148;19.760;2023-12-07T12:53:55;17.20;43.50
21355;DHT22;10835;50.148;19.760;2023-12-07T12:56:27;17.40;43.90
21355;DHT22;10835;50.148;19.760;2023-12-07T12:58:55;16.50;44.00
21355;DHT22;10835;50.148;19.760;2023-12-07T13:01:32;16.20;45.10
21355;DHT22;10835;50.148;19.760;2023-12-07T13:04:01;16.00;45.60
21355;DHT22;10835;50.148;19.760;2023-12-07T13:06:31;16.20;45.80
21355;DHT22;10835;50.148;19.760;2023-12-07T13:08:59;15.80;46.20
21355;DHT22;10835;50.148;19.760;2023-12-07T13:11:27;15.40;46.80
21355;DHT22;10835;50.148;19.760;2023-12-07T13:13:56;15.30;47.40
21355;DHT22;10835;50.148;19.760;2023-12-07T13:16:24;14.80;47.60
21355;DHT22;10835;50.148;19.760;2023-12-07T13:18:54;14.90;48.10
21355;DHT22;10835;50.148;19.760;2023-12-07T13:21:22;14.50;48.70
21355;DHT22;10835;50.148;19.760;2023-12-07T13:23:52;14.20;49.50
21355;DHT22;10835;50.148;19.760;2023-12-07T13:26:21;14.20;49.20
21355;DHT22;10835;50.148;19.760;2023-12-07T13:28:50;13.90;49.70
21355;DHT22;10835;50.148;19.760;2023-12-07T13:31:20;14.00;50.10
21355;DHT22;10835;50.148;19.760;2023-12-07T13:33:49;13.80;50.30
21355;DHT22;10835;50.148;19.760;2023-12-07T13:36:23;13.80;50.30
21355;DHT22;10835;50.148;19.760;2023-12-07T13:38:56;14.30;50.00
21355;DHT22;10835;50.148;19.760;2023-12-07T13:41:24;13.70;50.60
21355;DHT22;10835;50.148;19.760;2023-12-07T13:43:52;13.10;51.40
21355;DHT22;10835;50.148;19.760;2023-12-07T13:46:21;13.80;51.90
21355;DHT22;10835;50.148;19.760;2023-12-07T13:48:50;14.10;51.00
21355;DHT22;10835;50.148;19.760;2023-12-07T13:51:19;13.90;50.80
21355;DHT22;10835;50.148;19.760;2023-12-07T13:53:48;14.20;50.50
21355;DHT22;10835;50.148;19.760;2023-12-07T13:56:28;14.00;50.30
21355;DHT22;10835;50.148;19.760;2023-12-07T13:58:56;13.50;51.20
21355;DHT22;10835;50.148;19.760;2023-12-07T14:01:25;13.70;51.00
21355;DHT22;10835;50.148;19.760;2023-12-07T14:03:54;13.60;51.20
21355;DHT22;10835;50.148;19.760;2023-12-07T14:06:23;13.70;50.90
21355;DHT22;10835;50.148;19.760;2023-12-07T14:08:55;13.90;51.10
21355;DHT22;10835;50.148;19.760;2023-12-07T14:11:24;13.80;50.80
21355;DHT22;10835;50.148;19.760;2023-12-07T14:13:54;13.80;51.20
21355;DHT22;10835;50.148;19.760;2023-12-07T14:16:23;14.70;50.90
21355;DHT22;10835;50.148;19.760;2023-12-07T14:19:12;14.40;50.10
21355;DHT22;10835;50.148;19.760;2023-12-07T14:21:49;15.10;49.50
21355;DHT22;10835;50.148;19.760;2023-12-07T14:24:23;14.70;49.40
21355;DHT22;10835;50.148;19.760;2023-12-07T14:26:52;14.20;49.60
21355;DHT22;10835;50.148;19.760;2023-12-07T14:29:22;13.60;50.50
21355;DHT22;10835;50.148;19.760;2023-12-07T14:31:54;13.70;51.00
21355;DHT22;10835;50.148;19.760;2023-12-07T14:34:23;14.20;51.20
21355;DHT22;10835;50.148;19.760;2023-12-07T14:37:02;14.00;50.70
21355;DHT22;10835;50.148;19.760;2023-12-07T14:39:34;14.00;50.80
21355;DHT22;10835;50.148;19.760;2023-12-07T14:42:03;13.70;50.80
21355;DHT22;10835;50.148;19.760;2023-12-07T14:44:34;14.10;50.40
21355;DHT22;10835;50.148;19.760;2023-12-07T14:47:03;15.00;49.70
21355;DHT22;10835;50.148;19.760;2023-12-07T14:49:31;15.20;48.90
21355;DHT22;10835;50.148;19.760;2023-12-07T14:52:00;14.80;48.90
21355;DHT22;10835;50.148;19.760;2023-12-07T14:54:28;14.70;49.30
21355;DHT22;10835;50.148;19.760;2023-12-07T14:56:58;14.80;49.40
21355;DHT22;10835;50.148;19.760;2023-12-07T14:59:28;15.00;49.20
21355;DHT22;10835;50.148;19.760;2023-12-07T15:01:59;14.90;48.80
21355;DHT22;10835;50.148;19.760;2023-12-07T15:04:27;15.00;49.40
21355;DHT22;10835;50.148;19.760;2023-12-07T15:07:01;15.20;48.30
21355;DHT22;10835;50.148;19.760;2023-12-07T15:09:32;15.20;48.70
21355;DHT22;10835;50.148;19.760;2023-12-07T15:12:03;15.20;48.30
21355;DHT22;10835;50.148;19.760;2023-12-07T15:14:31;15.10;48.80
21355;DHT22;10835;50.148;19.760;2023-12-07T15:17:06;15.20;48.50
21355;DHT22;10835;50.148;19.760;2023-12-07T15:19:36;15.60;48.70
21355;DHT22;10835;50.148;19.760;2023-12-07T15:22:07;15.10;48.10
21355;DHT22;10835;50.148;19.760;2023-12-07T15:24:36;15.00;48.60
21355;DHT22;10835;50.148;19.760;2023-12-07T15:27:07;14.60;49.30
21355;DHT22;10835;50.148;19.760;2023-12-07T15:29:36;14.00;49.60
21355;DHT22;10835;50.148;19.760;2023-12-07T15:32:08;13.90;50.60